Fairfax, Alabama
Current Conditions -  °F | °C
As of 8:15 AM on Wednesday 28 Jan 2015 (Local Time) from KLGC Reporting Station
Clear Clear  
Wind Chill: 33°   Ceiling: Unl
Heat Index: 39°   Visibility: 10mi
Dew Point: 31°   Wind: 9mph
Humidity: 72%   Direction: 20°NNE
Pressure: 30.28"   Gusts: NA
Location:  32.7858°N, 85.1946°W
Report Text: KLGC 281415Z AUTO 02008KT 10SM CLR 04/M01 A3028 RMK AO2 T00401006
Loading
Personal Weather Stations






























Interactive Weather Map New forecast layout! Learn more

10-Day Weather Forecast

Advertisements
Track Severe Weather on mobile